sensor_id;sensor_type;location;lat;lon;timestamp;pressure;altitude;pressure_sealevel;temperature;humidity
49459;BME280;35354;51.296;16.924;2023-01-31T00:01:21;98932.44;;;3.17;100.00
49459;BME280;35354;51.296;16.924;2023-01-31T00:03:51;98944.31;;;3.21;100.00
49459;BME280;35354;51.296;16.924;2023-01-31T00:06:28;98955.47;;;3.22;100.00
49459;BME280;35354;51.296;16.924;2023-01-31T00:08:54;98948.44;;;3.27;100.00
49459;BME280;35354;51.296;16.924;2023-01-31T00:11:23;98959.06;;;3.15;100.00
49459;BME280;35354;51.296;16.924;2023-01-31T00:13:49;98976.59;;;3.33;100.00
49459;BME280;35354;51.296;16.924;2023-01-31T00:16:16;98980.97;;;3.30;100.00
49459;BME280;35354;51.296;16.924;2023-01-31T00:18:42;98946.19;;;3.16;100.00
49459;BME280;35354;51.296;16.924;2023-01-31T00:21:15;98962.97;;;3.30;100.00
49459;BME280;35354;51.296;16.924;2023-01-31T00:23:42;98967.28;;;3.29;100.00
49459;BME280;35354;51.296;16.924;2023-01-31T00:28:39;98968.25;;;3.25;100.00
49459;BME280;35354;51.296;16.924;2023-01-31T00:31:06;98957.91;;;3.27;100.00
49459;BME280;35354;51.296;16.924;2023-01-31T00:33:33;98981.69;;;3.35;100.00
49459;BME280;35354;51.296;16.924;2023-01-31T00:36:02;98985.41;;;3.24;100.00
49459;BME280;35354;51.296;16.924;2023-01-31T00:38:27;98994.25;;;3.14;100.00
49459;BME280;35354;51.296;16.924;2023-01-31T00:40:53;98984.28;;;3.04;100.00
49459;BME280;35354;51.296;16.924;2023-01-31T00:43:19;98993.69;;;3.03;100.00
49459;BME280;35354;51.296;16.924;2023-01-31T00:45:44;99005.47;;;3.12;100.00
49459;BME280;35354;51.296;16.924;2023-01-31T00:48:10;99027.75;;;3.13;100.00
49459;BME280;35354;51.296;16.924;2023-01-31T00:50:35;99036.19;;;3.18;100.00
49459;BME280;35354;51.296;16.924;2023-01-31T00:53:01;99011.59;;;3.08;100.00
49459;BME280;35354;51.296;16.924;2023-01-31T00:55:27;99031.56;;;3.31;100.00
49459;BME280;35354;51.296;16.924;2023-01-31T00:57:52;98995.22;;;3.10;100.00
49459;BME280;35354;51.296;16.924;2023-01-31T01:00:17;99004.41;;;3.20;100.00
49459;BME280;35354;51.296;16.924;2023-01-31T01:02:43;99017.78;;;3.33;100.00
49459;BME280;35354;51.296;16.924;2023-01-31T01:05:08;99019.41;;;3.36;100.00
49459;BME280;35354;51.296;16.924;2023-01-31T01:07:34;99033.44;;;3.24;100.00
49459;BME280;35354;51.296;16.924;2023-01-31T01:09:59;99042.31;;;3.14;100.00
49459;BME280;35354;51.296;16.924;2023-01-31T01:12:25;99034.91;;;3.02;100.00
49459;BME280;35354;51.296;16.924;2023-01-31T01:14:50;99051.00;;;3.10;100.00
49459;BME280;35354;51.296;16.924;2023-01-31T01:17:15;99054.59;;;3.03;100.00
49459;BME280;35354;51.296;16.924;2023-01-31T01:19:41;99035.06;;;2.95;100.00
49459;BME280;35354;51.296;16.924;2023-01-31T01:22:06;99043.44;;;3.04;100.00
49459;BME280;35354;51.296;16.924;2023-01-31T01:24:31;99069.13;;;3.05;100.00
49459;BME280;35354;51.296;16.924;2023-01-31T01:26:56;99049.44;;;3.03;100.00
49459;BME280;35354;51.296;16.924;2023-01-31T01:29:22;99080.72;;;3.21;100.00
49459;BME280;35354;51.296;16.924;2023-01-31T01:31:47;99042.56;;;3.05;100.00
49459;BME280;35354;51.296;16.924;2023-01-31T01:34:14;99074.63;;;3.24;99.94
49459;BME280;35354;51.296;16.924;2023-01-31T01:36:40;99054.53;;;3.06;99.81
49459;BME280;35354;51.296;16.924;2023-01-31T01:39:08;99084.91;;;3.25;98.95
49459;BME280;35354;51.296;16.924;2023-01-31T01:41:34;99065.53;;;3.11;98.75
49459;BME280;35354;51.296;16.924;2023-01-31T01:44:02;99070.72;;;3.09;98.19
49459;BME280;35354;51.296;16.924;2023-01-31T01:46:31;99081.88;;;3.10;97.25
49459;BME280;35354;51.296;16.924;2023-01-31T01:49:18;99108.19;;;3.19;96.89
49459;BME280;35354;51.296;16.924;2023-01-31T01:51:47;99079.53;;;3.00;96.92
49459;BME280;35354;51.296;16.924;2023-01-31T01:54:17;99089.59;;;3.10;96.73
49459;BME280;35354;51.296;16.924;2023-01-31T01:56:47;99081.06;;;3.08;96.12
49459;BME280;35354;51.296;16.924;2023-01-31T01:59:16;99104.00;;;3.17;95.75
49459;BME280;35354;51.296;16.924;2023-01-31T02:01:43;99109.84;;;3.22;95.16
49459;BME280;35354;51.296;16.924;2023-01-31T02:04:14;99111.53;;;3.24;95.07
49459;BME280;35354;51.296;16.924;2023-01-31T02:06:42;99094.13;;;2.98;94.93
49459;BME280;35354;51.296;16.924;2023-01-31T02:09:15;99110.09;;;3.13;94.79
49459;BME280;35354;51.296;16.924;2023-01-31T02:11:43;99119.66;;;3.08;94.78
49459;BME280;35354;51.296;16.924;2023-01-31T02:14:09;99135.91;;;3.10;94.18
49459;BME280;35354;51.296;16.924;2023-01-31T02:16:35;99133.97;;;3.18;93.99
49459;BME280;35354;51.296;16.924;2023-01-31T02:19:01;99136.72;;;3.10;93.54
49459;BME280;35354;51.296;16.924;2023-01-31T02:27:21;99161.97;;;3.30;94.24
49459;BME280;35354;51.296;16.924;2023-01-31T02:44:14;99161.72;;;3.05;95.67
49459;BME280;35354;51.296;16.924;2023-01-31T02:50:01;99171.88;;;3.11;96.22
49459;BME280;35354;51.296;16.924;2023-01-31T02:52:38;99188.34;;;3.04;96.44
49459;BME280;35354;51.296;16.924;2023-01-31T02:55:17;99156.84;;;2.94;96.15
49459;BME280;35354;51.296;16.924;2023-01-31T02:58:06;99190.72;;;3.12;95.83
49459;BME280;35354;51.296;16.924;2023-01-31T03:00:33;99218.69;;;3.27;96.03
49459;BME280;35354;51.296;16.924;2023-01-31T03:03:04;99218.19;;;3.11;94.83
49459;BME280;35354;51.296;16.924;2023-01-31T03:05:30;99209.78;;;3.05;94.81
49459;BME280;35354;51.296;16.924;2023-01-31T03:07:57;99234.22;;;3.22;94.55
49459;BME280;35354;51.296;16.924;2023-01-31T03:18:48;99245.06;;;2.98;94.24
49459;BME280;35354;51.296;16.924;2023-01-31T03:21:21;99234.47;;;2.73;94.89
49459;BME280;35354;51.296;16.924;2023-01-31T03:23:52;99246.91;;;2.93;96.02
49459;BME280;35354;51.296;16.924;2023-01-31T03:26:20;99263.97;;;2.97;96.60
49459;BME280;35354;51.296;16.924;2023-01-31T03:28:47;99234.53;;;2.71;97.13
49459;BME280;35354;51.296;16.924;2023-01-31T03:31:23;99245.75;;;2.67;97.48
49459;BME280;35354;51.296;16.924;2023-01-31T03:34:09;99260.03;;;2.81;97.22
49459;BME280;35354;51.296;16.924;2023-01-31T03:36:55;99255.00;;;2.76;97.08
49459;BME280;35354;51.296;16.924;2023-01-31T03:42:05;99250.78;;;2.72;96.23
49459;BME280;35354;51.296;16.924;2023-01-31T03:44:52;99271.06;;;2.86;96.24
49459;BME280;35354;51.296;16.924;2023-01-31T03:47:25;99268.50;;;2.86;95.84
49459;BME280;35354;51.296;16.924;2023-01-31T03:49:54;99278.63;;;2.93;95.14
49459;BME280;35354;51.296;16.924;2023-01-31T03:52:30;99255.72;;;2.83;94.37
49459;BME280;35354;51.296;16.924;2023-01-31T03:55:02;99251.38;;;2.85;93.99
49459;BME280;35354;51.296;16.924;2023-01-31T03:57:37;99261.81;;;2.79;92.91
49459;BME280;35354;51.296;16.924;2023-01-31T04:00:08;99264.38;;;2.77;91.97
49459;BME280;35354;51.296;16.924;2023-01-31T04:02:36;99274.03;;;2.67;91.37
49459;BME280;35354;51.296;16.924;2023-01-31T04:05:17;99301.25;;;2.78;91.14
49459;BME280;35354;51.296;16.924;2023-01-31T04:07:44;99283.31;;;2.74;90.82
49459;BME280;35354;51.296;16.924;2023-01-31T04:10:17;99279.03;;;2.75;90.58
49459;BME280;35354;51.296;16.924;2023-01-31T04:12:44;99300.44;;;2.75;90.14
49459;BME280;35354;51.296;16.924;2023-01-31T04:15:10;99289.94;;;2.85;89.75
49459;BME280;35354;51.296;16.924;2023-01-31T04:17:36;99306.06;;;2.93;89.74
49459;BME280;35354;51.296;16.924;2023-01-31T04:20:01;99295.03;;;2.88;89.29
49459;BME280;35354;51.296;16.924;2023-01-31T04:22:26;99284.19;;;2.73;88.92
49459;BME280;35354;51.296;16.924;2023-01-31T04:24:52;99263.69;;;2.69;88.90
49459;BME280;35354;51.296;16.924;2023-01-31T04:27:17;99295.19;;;2.80;88.25
49459;BME280;35354;51.296;16.924;2023-01-31T04:29:43;99296.97;;;2.77;88.39
49459;BME280;35354;51.296;16.924;2023-01-31T04:32:08;99314.94;;;2.80;88.55
49459;BME280;35354;51.296;16.924;2023-01-31T04:34:33;99311.38;;;2.85;88.25
49459;BME280;35354;51.296;16.924;2023-01-31T04:36:59;99337.09;;;2.85;88.01
49459;BME280;35354;51.296;16.924;2023-01-31T04:39:24;99317.47;;;2.81;87.76
49459;BME280;35354;51.296;16.924;2023-01-31T04:41:49;99319.91;;;2.87;87.49
49459;BME280;35354;51.296;16.924;2023-01-31T04:44:15;99323.38;;;2.85;87.85
49459;BME280;35354;51.296;16.924;2023-01-31T04:46:41;99339.47;;;2.96;87.64
49459;BME280;35354;51.296;16.924;2023-01-31T04:49:07;99327.66;;;2.86;87.30
49459;BME280;35354;51.296;16.924;2023-01-31T04:51:32;99329.03;;;3.02;87.38
49459;BME280;35354;51.296;16.924;2023-01-31T04:53:57;99338.28;;;3.11;87.30
49459;BME280;35354;51.296;16.924;2023-01-31T04:56:23;99338.41;;;3.05;87.08
49459;BME280;35354;51.296;16.924;2023-01-31T04:58:48;99319.88;;;2.89;87.20
49459;BME280;35354;51.296;16.924;2023-01-31T05:01:14;99331.69;;;2.97;86.97
49459;BME280;35354;51.296;16.924;2023-01-31T05:03:39;99344.63;;;2.94;87.09
49459;BME280;35354;51.296;16.924;2023-01-31T05:06:05;99336.16;;;2.89;86.43
49459;BME280;35354;51.296;16.924;2023-01-31T05:08:30;99326.81;;;2.85;85.86
49459;BME280;35354;51.296;16.924;2023-01-31T05:11:00;99350.44;;;3.03;85.57
49459;BME280;35354;51.296;16.924;2023-01-31T05:13:26;99359.13;;;2.98;85.38
49459;BME280;35354;51.296;16.924;2023-01-31T05:15:52;99363.31;;;3.04;85.32
49459;BME280;35354;51.296;16.924;2023-01-31T05:18:18;99360.69;;;3.06;84.83
49459;BME280;35354;51.296;16.924;2023-01-31T05:20:43;99351.47;;;2.95;84.54
49459;BME280;35354;51.296;16.924;2023-01-31T05:23:09;99344.75;;;2.88;84.72
49459;BME280;35354;51.296;16.924;2023-01-31T05:25:36;99364.44;;;2.91;84.35
49459;BME280;35354;51.296;16.924;2023-01-31T05:28:03;99363.66;;;2.87;84.50
49459;BME280;35354;51.296;16.924;2023-01-31T05:30:28;99397.78;;;2.95;84.38
49459;BME280;35354;51.296;16.924;2023-01-31T05:32:53;99376.59;;;2.83;84.47
49459;BME280;35354;51.296;16.924;2023-01-31T05:35:19;99396.75;;;3.04;84.64
49459;BME280;35354;51.296;16.924;2023-01-31T05:37:44;99404.44;;;3.06;84.51
49459;BME280;35354;51.296;16.924;2023-01-31T05:40:14;99422.63;;;2.96;85.01
49459;BME280;35354;51.296;16.924;2023-01-31T05:42:40;99408.88;;;2.97;84.50
49459;BME280;35354;51.296;16.924;2023-01-31T05:45:07;99407.16;;;2.98;84.82
49459;BME280;35354;51.296;16.924;2023-01-31T05:47:34;99393.63;;;2.88;84.74
49459;BME280;35354;51.296;16.924;2023-01-31T05:49:59;99398.88;;;2.84;84.57
49459;BME280;35354;51.296;16.924;2023-01-31T05:52:25;99378.47;;;2.73;84.32
49459;BME280;35354;51.296;16.924;2023-01-31T05:54:50;99430.31;;;2.98;84.79
49459;BME280;35354;51.296;16.924;2023-01-31T05:57:16;99402.13;;;2.92;84.28
49459;BME280;35354;51.296;16.924;2023-01-31T05:59:41;99422.72;;;2.92;83.88
49459;BME280;35354;51.296;16.924;2023-01-31T06:02:07;99402.03;;;2.96;83.75
49459;BME280;35354;51.296;16.924;2023-01-31T06:04:41;99436.88;;;3.13;83.46
49459;BME280;35354;51.296;16.924;2023-01-31T06:07:06;99400.44;;;2.91;83.23
49459;BME280;35354;51.296;16.924;2023-01-31T06:09:31;99416.56;;;2.99;82.95
49459;BME280;35354;51.296;16.924;2023-01-31T06:11:57;99435.41;;;3.01;83.31
49459;BME280;35354;51.296;16.924;2023-01-31T06:14:22;99420.31;;;2.83;82.71
49459;BME280;35354;51.296;16.924;2023-01-31T06:16:47;99447.41;;;3.00;83.26
49459;BME280;35354;51.296;16.924;2023-01-31T06:19:13;99416.78;;;2.88;83.07
49459;BME280;35354;51.296;16.924;2023-01-31T06:21:38;99440.53;;;3.01;82.07
49459;BME280;35354;51.296;16.924;2023-01-31T06:24:04;99413.22;;;2.95;81.65
49459;BME280;35354;51.296;16.924;2023-01-31T06:26:29;99427.78;;;2.96;81.52
49459;BME280;35354;51.296;16.924;2023-01-31T06:28:54;99413.69;;;2.71;81.89
49459;BME280;35354;51.296;16.924;2023-01-31T06:31:20;99450.78;;;3.04;81.69
49459;BME280;35354;51.296;16.924;2023-01-31T06:33:45;99439.59;;;3.05;81.38
49459;BME280;35354;51.296;16.924;2023-01-31T06:36:10;99419.44;;;2.84;81.43
49459;BME280;35354;51.296;16.924;2023-01-31T06:38:36;99456.78;;;3.03;81.67
49459;BME280;35354;51.296;16.924;2023-01-31T06:41:01;99444.00;;;3.00;81.96
49459;BME280;35354;51.296;16.924;2023-01-31T06:43:26;99448.25;;;3.01;81.99
49459;BME280;35354;51.296;16.924;2023-01-31T06:45:52;99459.53;;;2.94;82.01
49459;BME280;35354;51.296;16.924;2023-01-31T06:48:17;99447.59;;;2.90;82.13
49459;BME280;35354;51.296;16.924;2023-01-31T06:50:43;99472.22;;;3.03;82.27
49459;BME280;35354;51.296;16.924;2023-01-31T06:53:09;99451.00;;;2.92;82.47
49459;BME280;35354;51.296;16.924;2023-01-31T06:55:34;99471.25;;;3.10;82.70
49459;BME280;35354;51.296;16.924;2023-01-31T06:58:00;99467.06;;;3.05;82.83
49459;BME280;35354;51.296;16.924;2023-01-31T07:00:25;99448.31;;;2.98;83.13
49459;BME280;35354;51.296;16.924;2023-01-31T07:02:51;99450.00;;;3.00;83.36
49459;BME280;35354;51.296;16.924;2023-01-31T07:05:18;99473.63;;;3.19;83.15
49459;BME280;35354;51.296;16.924;2023-01-31T07:07:45;99449.94;;;3.02;83.26
49459;BME280;35354;51.296;16.924;2023-01-31T07:10:11;99451.59;;;3.06;83.40
49459;BME280;35354;51.296;16.924;2023-01-31T07:12:37;99453.41;;;3.01;83.71
49459;BME280;35354;51.296;16.924;2023-01-31T07:15:03;99454.31;;;2.98;83.80
49459;BME280;35354;51.296;16.924;2023-01-31T07:17:28;99475.44;;;3.14;83.52
49459;BME280;35354;51.296;16.924;2023-01-31T07:19:53;99461.22;;;2.96;83.75
49459;BME280;35354;51.296;16.924;2023-01-31T07:22:19;99477.66;;;2.88;83.84
49459;BME280;35354;51.296;16.924;2023-01-31T07:24:44;99484.00;;;2.68;84.16
49459;BME280;35354;51.296;16.924;2023-01-31T07:27:12;99491.47;;;2.33;86.22
49459;BME280;35354;51.296;16.924;2023-01-31T07:29:38;99506.13;;;2.26;86.52
49459;BME280;35354;51.296;16.924;2023-01-31T07:32:04;99519.13;;;2.14;87.13
49459;BME280;35354;51.296;16.924;2023-01-31T07:34:29;99507.47;;;1.91;87.89
49459;BME280;35354;51.296;16.924;2023-01-31T07:36:55;99491.44;;;1.72;88.49
49459;BME280;35354;51.296;16.924;2023-01-31T07:39:20;99481.34;;;1.62;89.62
49459;BME280;35354;51.296;16.924;2023-01-31T07:41:45;99527.97;;;1.96;89.16
49459;BME280;35354;51.296;16.924;2023-01-31T07:44:11;99500.75;;;1.81;89.15
49459;BME280;35354;51.296;16.924;2023-01-31T07:46:36;99490.47;;;1.83;89.03
49459;BME280;35354;51.296;16.924;2023-01-31T07:49:02;99529.59;;;2.02;88.78
49459;BME280;35354;51.296;16.924;2023-01-31T07:51:27;99486.25;;;1.79;88.26
49459;BME280;35354;51.296;16.924;2023-01-31T07:53:53;99536.31;;;2.10;89.07
49459;BME280;35354;51.296;16.924;2023-01-31T07:56:20;99528.59;;;2.10;87.62
49459;BME280;35354;51.296;16.924;2023-01-31T07:58:47;99517.53;;;2.08;86.80
49459;BME280;35354;51.296;16.924;2023-01-31T08:01:14;99537.91;;;2.20;85.88
49459;BME280;35354;51.296;16.924;2023-01-31T08:03:58;99538.78;;;2.18;85.53
49459;BME280;35354;51.296;16.924;2023-01-31T08:06:24;99554.94;;;2.28;85.61
49459;BME280;35354;51.296;16.924;2023-01-31T08:08:49;99544.72;;;2.21;84.97
49459;BME280;35354;51.296;16.924;2023-01-31T08:11:15;99538.72;;;2.22;84.82
49459;BME280;35354;51.296;16.924;2023-01-31T08:13:40;99532.91;;;2.10;85.15
49459;BME280;35354;51.296;16.924;2023-01-31T08:16:10;99571.97;;;2.33;85.84
49459;BME280;35354;51.296;16.924;2023-01-31T08:18:36;99542.25;;;2.15;85.83
49459;BME280;35354;51.296;16.924;2023-01-31T08:21:02;99570.34;;;2.28;86.55
49459;BME280;35354;51.296;16.924;2023-01-31T08:23:28;99548.31;;;2.11;87.34
49459;BME280;35354;51.296;16.924;2023-01-31T08:26:05;99525.44;;;1.93;88.00
49459;BME280;35354;51.296;16.924;2023-01-31T08:28:31;99569.47;;;2.27;88.46
49459;BME280;35354;51.296;16.924;2023-01-31T08:30:57;99540.53;;;2.16;88.61
49459;BME280;35354;51.296;16.924;2023-01-31T08:33:22;99555.81;;;2.25;89.07
49459;BME280;35354;51.296;16.924;2023-01-31T08:35:48;99560.84;;;2.31;88.99
49459;BME280;35354;51.296;16.924;2023-01-31T08:38:13;99567.53;;;2.43;89.02
49459;BME280;35354;51.296;16.924;2023-01-31T08:40:39;99565.88;;;2.39;89.42
49459;BME280;35354;51.296;16.924;2023-01-31T08:43:04;99553.03;;;2.40;89.76
49459;BME280;35354;51.296;16.924;2023-01-31T08:45:30;99569.06;;;2.56;90.45
49459;BME280;35354;51.296;16.924;2023-01-31T08:47:58;99581.84;;;2.61;90.22
49459;BME280;35354;51.296;16.924;2023-01-31T08:50:25;99548.63;;;2.47;89.52
49459;BME280;35354;51.296;16.924;2023-01-31T08:52:55;99544.34;;;2.47;89.60
49459;BME280;35354;51.296;16.924;2023-01-31T08:55:21;99530.78;;;2.38;90.12
49459;BME280;35354;51.296;16.924;2023-01-31T08:57:47;99530.75;;;2.39;89.54
49459;BME280;35354;51.296;16.924;2023-01-31T09:00:13;99577.53;;;2.63;89.89
49459;BME280;35354;51.296;16.924;2023-01-31T09:02:39;99591.97;;;2.71;89.24
49459;BME280;35354;51.296;16.924;2023-01-31T09:05:04;99584.09;;;2.81;89.53
49459;BME280;35354;51.296;16.924;2023-01-31T09:07:32;99584.09;;;2.81;89.06
49459;BME280;35354;51.296;16.924;2023-01-31T09:09:57;99597.84;;;2.78;89.72
49459;BME280;35354;51.296;16.924;2023-01-31T09:12:23;99583.44;;;2.68;89.84
49459;BME280;35354;51.296;16.924;2023-01-31T09:14:49;99592.69;;;2.80;90.16
49459;BME280;35354;51.296;16.924;2023-01-31T09:17:15;99608.78;;;2.92;90.62
49459;BME280;35354;51.296;16.924;2023-01-31T09:19:40;99556.16;;;2.59;90.81
49459;BME280;35354;51.296;16.924;2023-01-31T09:22:05;99605.44;;;2.86;90.53
49459;BME280;35354;51.296;16.924;2023-01-31T09:24:31;99604.59;;;2.87;90.84
49459;BME280;35354;51.296;16.924;2023-01-31T09:26:56;99616.56;;;2.88;91.39
49459;BME280;35354;51.296;16.924;2023-01-31T09:29:21;99619.88;;;2.96;91.54
49459;BME280;35354;51.296;16.924;2023-01-31T09:31:50;99608.81;;;2.91;90.37
49459;BME280;35354;51.296;16.924;2023-01-31T09:34:16;99615.81;;;2.83;91.19
49459;BME280;35354;51.296;16.924;2023-01-31T09:36:43;99621.78;;;2.83;91.56
49459;BME280;35354;51.296;16.924;2023-01-31T09:39:10;99605.78;;;2.66;92.45
49459;BME280;35354;51.296;16.924;2023-01-31T09:41:46;99621.91;;;2.75;92.55
49459;BME280;35354;51.296;16.924;2023-01-31T09:44:29;99624.44;;;2.79;93.00
49459;BME280;35354;51.296;16.924;2023-01-31T09:49:45;99632.00;;;2.88;92.84
49459;BME280;35354;51.296;16.924;2023-01-31T09:52:12;99606.38;;;2.82;92.42
49459;BME280;35354;51.296;16.924;2023-01-31T09:54:39;99630.09;;;2.99;92.54
49459;BME280;35354;51.296;16.924;2023-01-31T10:02:57;99636.88;;;3.05;93.07
49459;BME280;35354;51.296;16.924;2023-01-31T10:05:38;99630.97;;;2.99;92.85
49459;BME280;35354;51.296;16.924;2023-01-31T10:08:14;99612.31;;;2.87;93.31
49459;BME280;35354;51.296;16.924;2023-01-31T10:10:51;99601.25;;;2.80;94.12
49459;BME280;35354;51.296;16.924;2023-01-31T10:13:30;99606.28;;;2.88;95.01
49459;BME280;35354;51.296;16.924;2023-01-31T10:16:12;99602.78;;;2.90;94.85
49459;BME280;35354;51.296;16.924;2023-01-31T10:18:45;99606.13;;;2.97;93.90
49459;BME280;35354;51.296;16.924;2023-01-31T10:21:17;99623.75;;;3.21;93.00
49459;BME280;35354;51.296;16.924;2023-01-31T10:24:08;99614.75;;;3.44;93.87
49459;BME280;35354;51.296;16.924;2023-01-31T10:26:36;99595.69;;;3.06;95.26
49459;BME280;35354;51.296;16.924;2023-01-31T10:29:16;99609.59;;;2.94;96.42
49459;BME280;35354;51.296;16.924;2023-01-31T10:32:18;99609.72;;;3.38;97.81
49459;BME280;35354;51.296;16.924;2023-01-31T10:34:49;99589.53;;;3.16;97.84
49459;BME280;35354;51.296;16.924;2023-01-31T10:37:18;99610.16;;;3.13;98.96
49459;BME280;35354;51.296;16.924;2023-01-31T10:39:57;99591.31;;;3.58;99.59
49459;BME280;35354;51.296;16.924;2023-01-31T10:44:51;99581.09;;;3.55;96.81
49459;BME280;35354;51.296;16.924;2023-01-31T10:47:19;99554.78;;;3.39;96.99
49459;BME280;35354;51.296;16.924;2023-01-31T10:49:46;99559.22;;;3.74;96.51
49459;BME280;35354;51.296;16.924;2023-01-31T10:52:26;99553.75;;;3.47;96.47
49459;BME280;35354;51.296;16.924;2023-01-31T10:57:28;99559.81;;;3.87;97.38
49459;BME280;35354;51.296;16.924;2023-01-31T10:59:54;99547.31;;;4.09;96.11
49459;BME280;35354;51.296;16.924;2023-01-31T11:02:23;99570.06;;;3.90;95.95
49459;BME280;35354;51.296;16.924;2023-01-31T11:04:51;99559.22;;;3.74;96.45
49459;BME280;35354;51.296;16.924;2023-01-31T11:07:17;99542.41;;;3.98;96.99
49459;BME280;35354;51.296;16.924;2023-01-31T11:09:48;99526.78;;;3.67;96.16
49459;BME280;35354;51.296;16.924;2023-01-31T11:12:16;99517.84;;;3.40;95.82
49459;BME280;35354;51.296;16.924;2023-01-31T11:14:41;99541.09;;;3.80;97.38
49459;BME280;35354;51.296;16.924;2023-01-31T11:17:14;99556.56;;;3.79;96.54
49459;BME280;35354;51.296;16.924;2023-01-31T11:19:49;99497.31;;;3.37;97.01
49459;BME280;35354;51.296;16.924;2023-01-31T11:22:23;99543.91;;;3.68;97.98
49459;BME280;35354;51.296;16.924;2023-01-31T11:24:49;99528.47;;;3.66;97.35
49459;BME280;35354;51.296;16.924;2023-01-31T11:27:32;99528.00;;;3.47;97.53
49459;BME280;35354;51.296;16.924;2023-01-31T11:30:00;99529.81;;;3.42;98.74
49459;BME280;35354;51.296;16.924;2023-01-31T11:32:30;99528.75;;;3.94;98.68
49459;BME280;35354;51.296;16.924;2023-01-31T11:35:03;99530.31;;;4.02;97.01
49459;BME280;35354;51.296;16.924;2023-01-31T11:37:30;99499.38;;;3.63;98.49
49459;BME280;35354;51.296;16.924;2023-01-31T11:40:00;99517.16;;;3.75;97.78
49459;BME280;35354;51.296;16.924;2023-01-31T11:42:26;99504.50;;;4.03;96.99
49459;BME280;35354;51.296;16.924;2023-01-31T11:44:59;99511.44;;;4.01;95.87
49459;BME280;35354;51.296;16.924;2023-01-31T11:50:33;99507.34;;;3.91;96.49
49459;BME280;35354;51.296;16.924;2023-01-31T11:53:03;99508.31;;;4.24;95.08
49459;BME280;35354;51.296;16.924;2023-01-31T11:55:36;99496.50;;;3.77;95.92
49459;BME280;35354;51.296;16.924;2023-01-31T11:58:14;99494.03;;;3.72;95.58
49459;BME280;35354;51.296;16.924;2023-01-31T12:00:50;99448.31;;;3.82;95.54
49459;BME280;35354;51.296;16.924;2023-01-31T12:03:17;99495.19;;;3.96;94.93
49459;BME280;35354;51.296;16.924;2023-01-31T12:05:45;99446.31;;;3.56;95.83
49459;BME280;35354;51.296;16.924;2023-01-31T12:10:54;99472.69;;;3.67;99.42
49459;BME280;35354;51.296;16.924;2023-01-31T12:13:21;99453.44;;;3.43;100.00
49459;BME280;35354;51.296;16.924;2023-01-31T12:16:07;99483.97;;;3.60;100.00
49459;BME280;35354;51.296;16.924;2023-01-31T12:26:28;99472.31;;;3.84;100.00
49459;BME280;35354;51.296;16.924;2023-01-31T12:34:56;99453.81;;;3.65;100.00
49459;BME280;35354;51.296;16.924;2023-01-31T12:41:03;99456.00;;;3.43;100.00
49459;BME280;35354;51.296;16.924;2023-01-31T12:56:48;99436.47;;;3.34;100.00
49459;BME280;35354;51.296;16.924;2023-01-31T13:05:06;99407.69;;;3.14;100.00
49459;BME280;35354;51.296;16.924;2023-01-31T13:07:42;99412.34;;;3.38;100.00
49459;BME280;35354;51.296;16.924;2023-01-31T13:12:54;99389.84;;;3.06;100.00
49459;BME280;35354;51.296;16.924;2023-01-31T13:15:31;99413.72;;;3.55;100.00
49459;BME280;35354;51.296;16.924;2023-01-31T13:18:04;99397.91;;;3.31;100.00
49459;BME280;35354;51.296;16.924;2023-01-31T13:20:38;99382.84;;;3.13;100.00
49459;BME280;35354;51.296;16.924;2023-01-31T13:23:27;99375.47;;;3.36;100.00
49459;BME280;35354;51.296;16.924;2023-01-31T13:26:06;99388.38;;;3.35;100.00
49459;BME280;35354;51.296;16.924;2023-01-31T13:28:39;99370.03;;;3.10;100.00
49459;BME280;35354;51.296;16.924;2023-01-31T13:31:13;99353.25;;;3.32;100.00
49459;BME280;35354;51.296;16.924;2023-01-31T13:33:48;99357.81;;;3.21;100.00
49459;BME280;35354;51.296;16.924;2023-01-31T13:36:29;99378.41;;;3.19;100.00
49459;BME280;35354;51.296;16.924;2023-01-31T13:38:57;99368.75;;;3.31;100.00
49459;BME280;35354;51.296;16.924;2023-01-31T13:41:30;99371.28;;;3.32;100.00
49459;BME280;35354;51.296;16.924;2023-01-31T13:43:57;99341.88;;;3.04;100.00
49459;BME280;35354;51.296;16.924;2023-01-31T13:46:35;99368.31;;;3.10;100.00
49459;BME280;35354;51.296;16.924;2023-01-31T13:49:09;99333.88;;;3.16;100.00
49459;BME280;35354;51.296;16.924;2023-01-31T13:51:50;99352.03;;;3.10;100.00
49459;BME280;35354;51.296;16.924;2023-01-31T13:56:59;99361.53;;;3.46;100.00
49459;BME280;35354;51.296;16.924;2023-01-31T13:59:30;99354.13;;;3.70;100.00
49459;BME280;35354;51.296;16.924;2023-01-31T14:01:59;99336.44;;;3.17;100.00
49459;BME280;35354;51.296;16.924;2023-01-31T14:04:30;99360.47;;;3.16;100.00
49459;BME280;35354;51.296;16.924;2023-01-31T14:09:36;99343.97;;;3.62;100.00
49459;BME280;35354;51.296;16.924;2023-01-31T14:14:50;99351.81;;;3.20;100.00
49459;BME280;35354;51.296;16.924;2023-01-31T14:22:32;99347.72;;;3.10;100.00
49459;BME280;35354;51.296;16.924;2023-01-31T14:32:33;99330.34;;;3.59;100.00
49459;BME280;35354;51.296;16.924;2023-01-31T14:37:51;99327.44;;;2.96;100.00
49459;BME280;35354;51.296;16.924;2023-01-31T14:40:44;99323.97;;;3.38;100.00
49459;BME280;35354;51.296;16.924;2023-01-31T14:57:39;99273.34;;;3.37;100.00
49459;BME280;35354;51.296;16.924;2023-01-31T15:00:21;99295.94;;;3.24;100.00
49459;BME280;35354;51.296;16.924;2023-01-31T15:03:05;99265.28;;;2.76;100.00
49459;BME280;35354;51.296;16.924;2023-01-31T15:08:05;99293.75;;;3.09;100.00
49459;BME280;35354;51.296;16.924;2023-01-31T15:13:32;99304.59;;;2.83;100.00
49459;BME280;35354;51.296;16.924;2023-01-31T15:15:58;99298.63;;;3.19;100.00
49459;BME280;35354;51.296;16.924;2023-01-31T15:18:25;99280.41;;;3.29;100.00
49459;BME280;35354;51.296;16.924;2023-01-31T15:20:56;99304.88;;;3.09;100.00
49459;BME280;35354;51.296;16.924;2023-01-31T15:23:24;99305.34;;;2.86;100.00
49459;BME280;35354;51.296;16.924;2023-01-31T15:25:53;99281.44;;;2.83;100.00